createdAt,value
2017-10-11T00:02:40.038Z,100200.54
2017-10-11T00:05:42.327Z,100196.77
2017-10-11T00:08:44.601Z,100208.94
2017-10-11T00:11:46.829Z,100201.06
2017-10-11T00:14:48.372Z,100193.58
2017-10-11T00:17:49.920Z,100189.80
2017-10-11T00:20:51.512Z,100192.34
2017-10-11T00:23:53.044Z,100196.03
2017-10-11T00:26:54.622Z,100193.28
2017-10-11T00:29:56.202Z,100201.61
2017-10-11T00:32:58.461Z,100189.17
2017-10-11T00:36:00.905Z,100188.30
2017-10-11T00:39:02.461Z,100190.42
2017-10-11T00:42:04.072Z,100188.30
2017-10-11T00:45:05.902Z,100191.62
2017-10-11T00:48:07.512Z,100185.33
2017-10-11T00:51:09.163Z,100189.02
2017-10-11T00:54:10.737Z,100176.06
2017-10-11T00:57:13.127Z,100179.37
2017-10-11T01:00:14.796Z,100184.72
2017-10-11T01:03:16.465Z,100191.44
2017-10-11T01:06:18.824Z,100183.22
2017-10-11T01:09:20.507Z,100188.11
2017-10-11T01:12:22.846Z,100176.84
2017-10-11T01:15:24.463Z,100176.14
2017-10-11T01:18:26.110Z,100174.14
2017-10-11T01:21:27.694Z,100179.86
2017-10-11T01:24:29.261Z,100177.22
2017-10-11T01:27:30.926Z,100172.87
2017-10-11T01:30:32.512Z,100175.11
2017-10-11T01:33:34.166Z,100166.11
2017-10-11T01:36:36.577Z,100174.15
2017-10-11T01:39:38.151Z,100180.55
2017-10-11T01:42:39.746Z,100172.69
2017-10-11T01:45:41.297Z,100185.06
2017-10-11T01:48:42.884Z,100194.77
2017-10-11T01:51:45.187Z,100182.13
2017-10-11T01:54:46.800Z,100185.13
2017-10-11T01:57:49.100Z,100192.92
2017-10-11T02:00:50.685Z,100177.36
2017-10-11T02:03:52.279Z,100170.91
2017-10-11T02:06:53.840Z,100174.34
2017-10-11T02:09:56.112Z,100181.12
2017-10-11T02:12:57.669Z,100186.53
2017-10-11T02:15:59.248Z,100181.02
2017-10-11T02:19:00.790Z,100182.66
2017-10-11T02:22:03.156Z,100183.96
2017-10-11T02:25:05.399Z,100190.23
2017-10-11T02:28:06.960Z,100178.17
2017-10-11T02:31:08.669Z,100165.45
2017-10-11T02:34:10.204Z,100178.48
2017-10-11T02:37:12.465Z,100176.49
2017-10-11T02:40:14.762Z,100197.45
2017-10-11T02:43:16.296Z,100177.25
2017-10-11T02:46:18.509Z,100170.80
2017-10-11T02:49:20.043Z,100176.11
2017-10-11T02:52:21.545Z,100176.14
2017-10-11T02:55:23.119Z,100166.80
2017-10-11T02:58:24.659Z,100158.54
2017-10-11T03:01:26.182Z,100171.84
2017-10-11T03:04:27.748Z,100170.20
2017-10-11T03:07:29.247Z,100158.80
2017-10-11T03:10:31.465Z,100167.59
2017-10-11T03:13:33.027Z,100165.63
2017-10-11T03:16:34.592Z,100168.16
2017-10-11T03:19:36.160Z,100170.04
2017-10-11T03:22:37.704Z,100159.61
2017-10-11T03:25:39.353Z,100166.78
2017-10-11T03:28:40.832Z,100164.59
2017-10-11T03:31:43.083Z,100162.98
2017-10-11T03:34:44.588Z,100161.61
2017-10-11T03:37:46.930Z,100168.90
2017-10-11T03:40:48.465Z,100159.76
2017-10-11T03:43:49.951Z,100168.08
2017-10-11T03:46:52.178Z,100162.38
2017-10-11T03:49:53.647Z,100160.98
2017-10-11T03:52:55.157Z,100153.63
2017-10-11T03:55:56.655Z,100161.89
2017-10-11T03:58:58.153Z,100165.36
2017-10-11T04:01:59.670Z,100161.64
2017-10-11T04:05:01.215Z,100150.77
2017-10-11T04:08:02.713Z,100162.84
2017-10-11T04:11:04.978Z,100160.56
2017-10-11T04:14:07.304Z,100162.27
2017-10-11T04:17:08.843Z,100142.56
2017-10-11T04:20:10.368Z,100146.08
2017-10-11T04:23:11.898Z,100156.97
2017-10-11T04:26:13.490Z,100145.47
2017-10-11T04:29:14.996Z,100137.66
2017-10-11T04:32:16.552Z,100139.27
2017-10-11T04:35:18.043Z,100132.11
2017-10-11T04:38:19.580Z,100131.55
2017-10-11T04:41:21.924Z,100132.81
2017-10-11T04:44:23.510Z,100135.48
2017-10-11T04:47:25.904Z,100130.39
2017-10-11T04:50:27.474Z,100145.02
2017-10-11T04:53:29.042Z,100135.23
2017-10-11T04:56:30.555Z,100139.88
2017-10-11T04:59:32.873Z,100141.95
2017-10-11T05:02:34.374Z,100142.48
2017-10-11T05:05:36.630Z,100138.67
2017-10-11T05:08:38.911Z,100143.92
2017-10-11T05:11:40.486Z,100130.81
2017-10-11T05:14:42.031Z,100141.66
2017-10-11T05:17:44.305Z,100146.73
2017-10-11T05:20:46.601Z,100134.12
2017-10-11T05:23:48.195Z,100134.70
2017-10-11T05:26:49.728Z,100142.97
2017-10-11T05:33:00.414Z,100156.89
2017-10-11T05:36:01.987Z,100152.03
2017-10-11T05:39:03.535Z,100150.80
2017-10-11T05:42:05.079Z,100145.17
2017-10-11T05:45:06.849Z,100156.36
2017-10-11T05:48:08.392Z,100154.44
2017-10-11T05:51:09.894Z,100145.85
2017-10-11T05:54:11.384Z,100154.77
2017-10-11T05:57:12.909Z,100156.33
2017-10-11T06:00:15.171Z,100154.45
2017-10-11T06:03:16.790Z,100158.53
2017-10-11T06:06:18.275Z,100156.12
2017-10-11T06:09:19.822Z,100163.62
2017-10-11T06:12:21.397Z,100155.33
2017-10-11T06:15:22.928Z,100161.59
2017-10-11T06:18:24.442Z,100161.62
2017-10-11T06:21:25.977Z,100163.20
2017-10-11T06:24:27.495Z,100163.11
2017-10-11T06:27:29.030Z,100170.58
2017-10-11T06:30:30.604Z,100162.64
2017-10-11T06:33:32.175Z,100173.63
2017-10-11T06:36:33.773Z,100170.34
2017-10-11T06:39:35.318Z,100176.51
2017-10-11T06:42:36.827Z,100177.17
2017-10-11T06:45:38.402Z,100173.92
2017-10-11T06:48:39.954Z,100170.36
2017-10-11T06:51:41.533Z,100177.78
2017-10-11T06:54:43.732Z,100172.57
2017-10-11T06:57:46.348Z,100174.02
2017-10-11T07:00:47.980Z,100177.13
2017-10-11T07:03:49.590Z,100178.00
2017-10-11T07:06:51.202Z,100185.25
2017-10-11T07:09:52.773Z,100191.58
2017-10-11T07:13:01.917Z,100190.23
2017-10-11T07:16:04.565Z,100190.03
2017-10-11T07:19:06.118Z,100193.19
2017-10-11T07:22:07.652Z,100191.94
2017-10-11T07:25:09.219Z,100207.65
2017-10-11T07:28:10.796Z,100183.34
2017-10-11T07:31:12.338Z,100200.79
2017-10-11T07:34:13.873Z,100192.01
2017-10-11T07:37:15.345Z,100190.59
2017-10-11T07:40:16.916Z,100201.48
2017-10-11T07:43:18.416Z,100202.45
2017-10-11T07:46:20.704Z,100209.56
2017-10-11T07:49:22.629Z,100205.18
2017-10-11T07:52:26.228Z,100210.41
2017-10-11T07:55:31.476Z,100194.23
2017-10-11T07:58:33.093Z,100211.60
2017-10-11T08:01:34.737Z,100212.75
2017-10-11T08:04:37.033Z,100213.45
2017-10-11T08:07:43.717Z,100212.12
2017-10-11T08:10:45.284Z,100216.30
2017-10-11T08:13:46.872Z,100221.52
2017-10-11T08:16:50.894Z,100216.27
2017-10-11T08:19:52.408Z,100227.77
2017-10-11T08:22:54.698Z,100220.50
2017-10-11T08:26:59.191Z,100218.23
2017-10-11T08:30:28.095Z,100231.25
2017-10-11T08:33:39.876Z,100225.98
2017-10-11T08:36:56.481Z,100236.64
2017-10-11T08:40:05.872Z,100231.33
2017-10-11T08:43:08.702Z,100230.22
2017-10-11T08:46:11.991Z,100223.58
2017-10-11T08:49:20.610Z,100232.91
2017-10-11T08:52:24.657Z,100228.83
2017-10-11T08:55:27.622Z,100227.93
2017-10-11T08:58:30.208Z,100238.91
2017-10-11T09:01:31.795Z,100241.73
2017-10-11T09:04:35.326Z,100249.45
2017-10-11T09:07:40.517Z,100240.71
2017-10-11T09:10:52.041Z,100239.93
2017-10-11T09:14:04.246Z,100227.55
2017-10-11T09:17:11.028Z,100221.50
2017-10-11T09:20:16.541Z,100243.73
2017-10-11T09:23:22.073Z,100244.70
2017-10-11T09:29:31.823Z,100246.50
2017-10-11T09:32:34.045Z,100229.08
2017-10-11T09:35:51.349Z,100239.44
2017-10-11T09:39:20.254Z,100228.69
2017-10-11T09:42:25.637Z,100233.53
2017-10-11T09:45:28.308Z,100237.80
2017-10-11T09:48:34.606Z,100243.24
2017-10-11T09:51:49.320Z,100241.76
2017-10-11T09:54:51.718Z,100222.34
2017-10-11T09:57:53.377Z,100215.83
2017-10-11T10:00:59.251Z,100212.07
2017-10-11T10:04:02.730Z,100235.80
2017-10-11T10:07:06.605Z,100209.20
2017-10-11T10:10:12.099Z,100222.70
2017-10-11T10:13:14.887Z,100217.93
2017-10-11T10:16:16.482Z,100217.11
2017-10-11T10:19:21.486Z,100214.32
2017-10-11T10:22:24.066Z,100217.04
2017-10-11T10:25:29.372Z,100221.55
2017-10-11T10:28:35.711Z,100226.91
2017-10-11T10:31:37.307Z,100218.80
2017-10-11T10:34:39.045Z,100222.28
2017-10-11T10:37:42.512Z,100218.22
2017-10-11T10:40:44.194Z,100211.08
2017-10-11T10:43:52.771Z,100214.06
2017-10-11T10:46:57.294Z,100211.30
2017-10-11T10:50:01.922Z,100215.80
2017-10-11T10:53:03.782Z,100221.84
2017-10-11T10:56:10.315Z,100216.00
2017-10-11T10:59:11.917Z,100213.99
2017-10-11T11:02:14.637Z,100224.48
2017-10-11T11:05:21.123Z,100213.60
2017-10-11T11:08:24.047Z,100209.19
2017-10-11T11:11:27.311Z,100214.73
2017-10-11T11:14:29.541Z,100201.98
2017-10-11T11:17:34.549Z,100207.95
2017-10-11T11:20:38.220Z,100206.63
2017-10-11T11:23:40.961Z,100202.25
2017-10-11T11:26:47.935Z,100201.27
2017-10-11T11:29:54.645Z,100199.58
2017-10-11T11:32:59.290Z,100189.04
2017-10-11T11:36:00.823Z,100185.06
2017-10-11T11:39:13.963Z,100193.04
2017-10-11T11:42:19.247Z,100191.19
2017-10-11T11:45:22.508Z,100192.06
2017-10-11T11:48:24.088Z,100185.40
2017-10-11T11:51:29.096Z,100186.69
2017-10-11T11:54:32.940Z,100185.07
2017-10-11T11:57:35.740Z,100176.66
2017-10-11T12:00:37.302Z,100183.33
2017-10-11T12:03:40.957Z,100179.66
2017-10-11T12:06:42.499Z,100185.23
2017-10-11T12:09:44.059Z,100172.59
2017-10-11T12:12:45.685Z,100183.10
2017-10-11T12:15:47.244Z,100171.33
2017-10-11T12:18:50.625Z,100175.61
2017-10-11T12:21:52.345Z,100190.95
2017-10-11T12:25:00.765Z,100173.55
2017-10-11T12:28:04.157Z,100178.16
2017-10-11T12:31:06.482Z,100171.47
2017-10-11T12:34:08.019Z,100164.67
2017-10-11T12:37:09.585Z,100169.42
2017-10-11T12:40:12.311Z,100165.13
2017-10-11T12:43:14.617Z,100162.08
2017-10-11T12:46:16.149Z,100152.50
2017-10-11T12:49:17.636Z,100154.81
2017-10-11T12:52:19.224Z,100155.66
2017-10-11T12:55:20.745Z,100152.80
2017-10-11T12:58:22.351Z,100145.34
2017-10-11T13:01:24.624Z,100145.30
2017-10-11T13:04:26.222Z,100134.30
2017-10-11T13:07:27.815Z,100166.61
2017-10-11T13:10:29.352Z,100141.14
2017-10-11T13:13:30.921Z,100134.25
2017-10-11T13:16:32.499Z,100135.13
2017-10-11T13:22:42.213Z,100128.53
2017-10-11T13:25:44.396Z,100124.80
2017-10-11T13:28:45.984Z,100116.70
2017-10-11T13:31:48.239Z,100123.72
2017-10-11T13:34:49.771Z,100127.45
2017-10-11T13:37:51.268Z,100123.62
2017-10-11T13:40:52.800Z,100126.31
2017-10-11T13:43:55.094Z,100112.98
2017-10-11T13:46:56.611Z,100106.64
2017-10-11T13:49:58.206Z,100113.72
2017-10-11T13:53:00.468Z,100110.06
2017-10-11T13:56:01.982Z,100120.39
2017-10-11T13:59:03.595Z,100107.51
2017-10-11T14:02:05.905Z,100112.84
2017-10-11T14:05:07.514Z,100105.95
2017-10-11T14:08:09.784Z,100097.73
2017-10-11T14:11:12.062Z,100105.34
2017-10-11T14:14:14.332Z,100101.16
2017-10-11T14:17:15.879Z,100092.38
2017-10-11T14:20:18.224Z,100096.58
2017-10-11T14:23:19.704Z,100098.95
2017-10-11T14:26:21.255Z,100089.23
2017-10-11T14:29:23.691Z,100087.74
2017-10-11T14:32:25.297Z,100081.71
2017-10-11T14:35:26.918Z,100069.12
2017-10-11T14:38:28.517Z,100071.79
2017-10-11T14:41:30.953Z,100078.22
2017-10-11T14:44:32.587Z,100070.48
2017-10-11T14:47:34.125Z,100067.66
2017-10-11T14:50:36.382Z,100068.23
2017-10-11T14:53:37.958Z,100066.88
2017-10-11T14:56:40.197Z,100067.52
2017-10-11T14:59:41.787Z,100070.67
2017-10-11T15:02:44.126Z,100060.10
2017-10-11T15:05:45.742Z,100069.13
2017-10-11T15:08:47.322Z,100065.09
2017-10-11T15:11:48.958Z,100069.17
2017-10-11T15:14:50.556Z,100060.25
2017-10-11T15:17:52.832Z,100066.50
2017-10-11T15:20:54.390Z,100058.07
2017-10-11T15:23:55.977Z,100054.02
2017-10-11T15:26:58.313Z,100058.97
2017-10-11T15:29:59.951Z,100030.10
2017-10-11T15:33:01.504Z,100050.00
2017-10-11T15:36:03.716Z,100051.27
2017-10-11T15:39:05.262Z,100055.65
2017-10-11T15:42:07.627Z,100054.14
2017-10-11T15:45:09.233Z,100055.56
2017-10-11T15:48:10.816Z,100054.34
2017-10-11T15:51:12.429Z,100042.60
2017-10-11T15:54:14.736Z,100048.46
2017-10-11T15:57:16.331Z,100046.54
2017-10-11T16:00:17.905Z,100049.04
2017-10-11T16:03:20.195Z,100052.12
2017-10-11T16:06:22.450Z,100045.71
2017-10-11T16:09:24.814Z,100043.98
2017-10-11T16:12:26.337Z,100043.18
2017-10-11T16:15:27.938Z,100043.73
2017-10-11T16:18:30.213Z,100044.94
2017-10-11T16:21:32.548Z,100043.81
2017-10-11T16:24:34.130Z,100028.61
2017-10-11T16:27:35.669Z,100031.77
2017-10-11T16:30:37.804Z,100032.45
2017-10-11T16:33:39.922Z,100045.69
2017-10-11T16:36:41.657Z,100041.63
2017-10-11T16:39:45.327Z,100035.50
2017-10-11T16:42:46.991Z,100035.66
2017-10-11T16:45:48.876Z,100032.00
2017-10-11T16:48:50.655Z,100024.11
2017-10-11T16:51:52.375Z,100033.66
2017-10-11T16:54:54.464Z,100026.65
2017-10-11T16:57:58.189Z,100023.03
2017-10-11T17:01:00.039Z,100029.23
2017-10-11T17:04:01.767Z,100017.88
2017-10-11T17:07:04.331Z,100025.11
2017-10-11T17:10:07.081Z,100027.16
2017-10-11T17:13:08.775Z,100019.55
2017-10-11T17:16:12.055Z,100026.87
2017-10-11T17:19:13.797Z,100025.50
2017-10-11T17:22:15.903Z,100027.05
2017-10-11T17:25:17.624Z,100019.41
2017-10-11T17:28:19.294Z,100022.58
2017-10-11T17:31:21.393Z,100023.34
2017-10-11T17:34:22.953Z,100015.62
2017-10-11T17:37:24.986Z,100017.02
2017-10-11T17:40:27.933Z,100008.98
2017-10-11T17:43:29.453Z,100010.48
2017-10-11T17:46:32.103Z,100020.73
2017-10-11T17:49:34.909Z,100016.94
2017-10-11T17:52:37.393Z,100006.43
2017-10-11T17:55:40.794Z,100005.28
2017-10-11T17:58:42.671Z,100005.45
2017-10-11T18:01:44.240Z,100019.95
2017-10-11T18:04:47.030Z,100012.09
2017-10-11T18:07:48.651Z,100017.34
2017-10-11T18:10:51.306Z,100017.30
2017-10-11T18:13:56.164Z,100018.18
2017-10-11T18:16:58.805Z,100011.71
2017-10-11T18:20:01.408Z,100014.14
2017-10-11T18:23:04.181Z,100001.38
2017-10-11T18:26:06.471Z,100008.36
2017-10-11T18:29:08.649Z,100019.73
2017-10-11T18:32:10.880Z,100019.48
2017-10-11T18:35:13.325Z,100017.27
2017-10-11T18:38:15.605Z,100020.63
2017-10-11T18:41:17.968Z,100018.89
2017-10-11T18:44:20.914Z,100008.39
2017-10-11T18:47:23.296Z,100016.48
2017-10-11T18:54:35.572Z,100015.32
2017-10-11T18:57:37.150Z,100022.34
2017-10-11T19:00:38.802Z,100013.48
2017-10-11T19:03:40.817Z,100015.72
2017-10-11T19:06:42.395Z,100022.83
2017-10-11T19:09:44.465Z,100023.17
2017-10-11T19:12:46.161Z,100025.62
2017-10-11T19:15:48.261Z,100022.27
2017-10-11T19:18:53.029Z,100013.08
2017-10-11T19:21:57.745Z,100009.38
2017-10-11T19:25:07.261Z,100002.13
2017-10-11T19:28:10.919Z,100013.66
2017-10-11T19:34:20.797Z,100010.17
2017-10-11T19:37:22.400Z,100013.98
2017-10-11T19:40:24.903Z,100012.53
2017-10-11T19:43:27.475Z,100022.36
2017-10-11T19:46:29.179Z,100009.20
2017-10-11T19:49:30.722Z,100016.99
2017-10-11T19:52:33.734Z,100012.16
2017-10-11T19:55:35.953Z,99988.47
2017-10-11T19:58:37.553Z,99998.28
2017-10-11T20:01:39.663Z,100009.73
2017-10-11T20:04:42.641Z,100006.99
2017-10-11T20:07:44.958Z,100013.78
2017-10-11T20:10:46.578Z,100013.18
2017-10-11T20:13:49.159Z,100013.51
2017-10-11T20:16:50.828Z,100010.92
2017-10-11T20:20:11.754Z,100013.05
2017-10-11T20:23:13.876Z,100015.72
2017-10-11T20:26:20.007Z,100001.00
2017-10-11T20:29:27.486Z,99997.64
2017-10-11T20:32:52.095Z,100008.15
2017-10-11T20:36:08.081Z,100001.94
2017-10-11T20:39:21.266Z,100007.80
2017-10-11T20:42:22.864Z,100008.28
2017-10-11T20:45:26.675Z,100004.82
2017-10-11T20:48:28.263Z,100000.44
2017-10-11T20:51:35.399Z,100000.41
2017-10-11T20:54:36.953Z,99997.88
2017-10-11T20:57:43.873Z,100005.64
2017-10-11T21:00:46.162Z,99991.14
2017-10-11T21:03:48.440Z,99999.17
2017-10-11T21:06:51.081Z,100005.86
2017-10-11T21:09:52.782Z,99987.41
2017-10-11T21:12:54.662Z,100008.31
2017-10-11T21:15:56.332Z,100000.73
2017-10-11T21:18:57.985Z,99997.97
2017-10-11T21:21:59.596Z,100010.66
2017-10-11T21:25:01.927Z,100000.11
2017-10-11T21:28:03.621Z,99993.23
2017-10-11T21:31:07.545Z,100010.17
2017-10-11T21:34:09.310Z,99993.80
2017-10-11T21:37:14.560Z,99997.64
2017-10-11T21:40:16.186Z,99989.45
2017-10-11T21:43:17.692Z,100000.11
2017-10-11T21:46:19.273Z,99999.02
2017-10-11T21:49:20.750Z,99994.00
2017-10-11T21:52:23.101Z,99992.23
2017-10-11T21:55:24.599Z,99987.84
2017-10-11T21:58:26.997Z,99988.95
2017-10-11T22:01:28.500Z,99980.80
2017-10-11T22:04:29.997Z,99970.48
2017-10-11T22:07:31.504Z,99972.55
2017-10-11T22:10:33.070Z,99961.48
2017-10-11T22:13:35.358Z,99966.00
2017-10-11T22:16:37.575Z,99959.35
2017-10-11T22:19:39.364Z,99937.53
2017-10-11T22:22:40.873Z,99940.67
2017-10-11T22:25:42.397Z,99939.44
2017-10-11T22:28:43.944Z,99941.19
2017-10-11T22:31:46.280Z,99933.23
2017-10-11T22:34:47.773Z,99938.27
2017-10-11T22:37:50.044Z,99942.72
2017-10-11T22:40:52.292Z,99947.66
2017-10-11T22:43:53.808Z,99930.28
2017-10-11T22:46:55.356Z,99913.80
2017-10-11T22:49:56.875Z,99929.83
2017-10-11T22:52:59.163Z,99929.18
2017-10-11T22:56:00.799Z,99932.59
2017-10-11T22:59:02.307Z,99931.36
2017-10-11T23:02:03.863Z,99918.11
2017-10-11T23:05:05.383Z,99924.16
2017-10-11T23:08:06.950Z,99923.98
2017-10-11T23:11:08.425Z,99928.08
2017-10-11T23:14:09.986Z,99923.50
2017-10-11T23:17:11.524Z,99921.02
2017-10-11T23:25:48.353Z,99914.32
2017-10-11T23:28:49.879Z,99914.08
2017-10-11T23:31:51.403Z,99909.95
2017-10-11T23:34:52.889Z,99905.50
2017-10-11T23:37:54.427Z,99892.78
2017-10-11T23:40:55.929Z,99893.73
2017-10-11T23:43:57.421Z,99890.79
2017-10-11T23:46:58.960Z,99880.83
2017-10-11T23:50:00.774Z,99880.76
2017-10-11T23:53:03.249Z,99881.75
2017-10-11T23:56:04.781Z,99882.33
2017-10-11T23:59:06.747Z,99878.33
